Time;durP1;ratioP1;P1;durP2;ratioP2;P2;SDS_P1;SDS_P2;PMS_P1;PMS_P2;Temp;Humidity;BMP_temperature;BMP_pressure;BME280_temperature;BME280_humidity;BME280_pressure;Samples;Min_cycle;Max_cycle;Signal;HPM_P1;HPM_P2
2021/10/09 17:11:05;;;;;;;31.50;19.20;;;;;;;;;;6196874;22;2269150;-59
2021/10/09 17:13:40;;;;;;;51.43;29.77;;;;;;;;;;6305657;22;20553;-55
2021/10/09 17:16:29;;;;;;;53.57;31.50;;;;;;;;;;6307617;22;20418;-50
2021/10/09 17:19:03;;;;;;;42.97;30.43;;;;;;;;;;6306598;22;20473;-57
2021/10/09 17:21:45;;;;;;;46.53;32.63;;;;;;;;;;6307659;22;20391;-59
2021/10/09 17:27:32;;;;;;;57.63;37.00;;;;;;;;;;6307388;22;20434;-67
2021/10/09 17:30:16;;;;;;;51.07;34.67;;;;;;;;;;6307858;22;20486;-58
2021/10/09 17:32:44;;;;;;;54.47;32.60;;;;;;;;;;6304010;22;20418;-56
2021/10/09 17:35:25;;;;;;;48.17;31.57;;;;;;;;;;6307459;22;20407;-59
2021/10/09 17:37:54;;;;;;;37.00;23.40;;;;;;;;;;6307265;22;20383;-56
2021/10/09 17:40:24;;;;;;;34.13;20.07;;;;;;;;;;6308137;22;20428;-59
2021/10/09 17:43:04;;;;;;;24.03;16.87;;;;;;;;;;6308247;22;20434;-60
2021/10/09 17:45:35;;;;;;;22.57;14.83;;;;;;;;;;6308687;22;20414;-54
2021/10/09 17:48:49;;;;;;;20.17;14.27;;;;;;;;;;6308221;22;20422;-56
2021/10/09 17:51:24;;;;;;;22.50;14.30;;;;;;;;;;6307276;22;20426;-55
2021/10/09 17:54:05;;;;;;;18.87;13.10;;;;;;;;;;6307773;22;20414;-58
2021/10/09 17:56:46;;;;;;;20.60;14.97;;;;;;;;;;6308407;22;20437;-53
2021/10/09 17:59:15;;;;;;;20.50;16.43;;;;;;;;;;6307318;22;20447;-58
2021/10/09 18:01:45;;;;;;;21.17;16.90;;;;;;;;;;6305155;22;20441;-59
2021/10/09 18:04:12;;;;;;;27.27;19.13;;;;;;;;;;6305719;22;20419;-61
2021/10/09 18:06:40;;;;;;;31.00;20.80;;;;;;;;;;6305363;22;20391;-52
2021/10/09 18:09:18;;;;;;;24.80;18.03;;;;;;;;;;6306945;22;20415;-59
2021/10/09 18:11:46;;;;;;;24.20;16.00;;;;;;;;;;6301027;22;20415;-53
2021/10/09 18:14:13;;;;;;;23.17;15.43;;;;;;;;;;6302162;22;20458;-57
2021/10/09 18:16:42;;;;;;;25.97;18.97;;;;;;;;;;6301757;22;20400;-56
2021/10/09 18:19:10;;;;;;;21.17;16.10;;;;;;;;;;6301893;22;20412;-51
2021/10/09 18:22:06;;;;;;;24.70;15.20;;;;;;;;;;6302501;22;20377;-57
2021/10/09 18:24:45;;;;;;;14.90;12.60;;;;;;;;;;6302399;22;20431;-56
2021/10/09 18:27:35;;;;;;;20.17;14.37;;;;;;;;;;6301428;22;20436;-54
2021/10/09 18:30:02;;;;;;;23.33;14.60;;;;;;;;;;6302676;22;20412;-60
2021/10/09 18:32:33;;;;;;;36.53;18.50;;;;;;;;;;6302227;22;20423;-55
2021/10/09 18:35:01;;;;;;;17.03;14.10;;;;;;;;;;6302901;22;20419;-56
2021/10/09 18:38:16;;;;;;;25.23;17.50;;;;;;;;;;6301960;22;20816;-59
2021/10/09 18:40:44;;;;;;;22.20;15.80;;;;;;;;;;6301265;22;20481;-58
2021/10/09 18:43:36;;;;;;;23.63;15.90;;;;;;;;;;6301526;22;20381;-51
2021/10/09 18:46:08;;;;;;;30.40;21.70;;;;;;;;;;6302623;22;20403;-56
2021/10/09 18:48:39;;;;;;;24.47;16.77;;;;;;;;;;6302447;22;20408;-61
2021/10/09 18:54:21;;;;;;;65.70;37.50;;;;;;;;;;6280054;22;20416;-60
2021/10/09 18:56:56;;;;;;;98.73;61.40;;;;;;;;;;6302473;22;20408;-58
2021/10/09 18:59:34;;;;;;;25.40;17.33;;;;;;;;;;6301803;22;20448;-63
2021/10/09 19:02:01;;;;;;;31.70;19.20;;;;;;;;;;6301965;22;20475;-57
2021/10/09 19:04:31;;;;;;;36.07;25.27;;;;;;;;;;6301248;22;20442;-57
2021/10/09 19:06:59;;;;;;;50.63;34.90;;;;;;;;;;6302224;22;20385;-59
2021/10/09 19:09:26;;;;;;;46.87;33.50;;;;;;;;;;6301124;22;20438;-57
2021/10/09 19:11:53;;;;;;;25.47;18.40;;;;;;;;;;6303209;22;20435;-53
2021/10/09 19:14:36;;;;;;;50.37;33.50;;;;;;;;;;6302159;22;20468;-60
2021/10/09 19:17:04;;;;;;;33.77;25.10;;;;;;;;;;6302082;22;20511;-55
2021/10/09 19:19:33;;;;;;;42.30;29.90;;;;;;;;;;6302346;22;20448;-59
2021/10/09 19:22:29;;;;;;;64.23;46.60;;;;;;;;;;6301525;22;20408;-60
2021/10/09 19:24:57;;;;;;;24.67;15.67;;;;;;;;;;6302199;22;20464;-58
2021/10/09 19:27:26;;;;;;;35.73;26.60;;;;;;;;;;6302268;22;20420;-55
2021/10/09 19:29:54;;;;;;;24.27;15.40;;;;;;;;;;6302603;22;20416;-58
2021/10/09 19:32:26;;;;;;;27.80;19.23;;;;;;;;;;6302236;22;20431;-59
2021/10/09 19:35:22;;;;;;;41.50;29.53;;;;;;;;;;6302320;22;20437;-53
2021/10/09 19:38:12;;;;;;;34.67;19.13;;;;;;;;;;6301199;22;20396;-53
2021/10/09 19:40:46;;;;;;;27.13;18.87;;;;;;;;;;6301726;22;20447;-56
2021/10/09 19:43:21;;;;;;;15.03;12.10;;;;;;;;;;6302341;22;20412;-58
2021/10/09 19:45:52;;;;;;;19.27;13.07;;;;;;;;;;6301910;22;20407;-55
2021/10/09 19:48:28;;;;;;;14.13;10.83;;;;;;;;;;6302096;22;20419;-57
2021/10/09 19:51:16;;;;;;;20.47;14.33;;;;;;;;;;6301402;22;20458;-62
2021/10/09 19:53:51;;;;;;;19.07;11.73;;;;;;;;;;6302056;22;20427;-59
2021/10/09 19:59:10;;;;;;;15.80;10.57;;;;;;;;;;6300646;22;20412;-62
2021/10/09 20:01:51;;;;;;;18.57;9.23;;;;;;;;;;6301788;22;20483;-60
2021/10/09 20:04:40;;;;;;;15.90;9.57;;;;;;;;;;6301984;22;20416;-57
2021/10/09 20:13:16;;;;;;;17.40;12.10;;;;;;;;;;6299316;22;20452;-61
2021/10/09 20:19:05;;;;;;;20.53;13.03;;;;;;;;;;6300823;22;20404;-56
2021/10/09 20:21:41;;;;;;;13.70;10.27;;;;;;;;;;6301558;22;20407;-58
2021/10/09 20:24:40;;;;;;;18.30;9.70;;;;;;;;;;6301751;22;20465;-56
2021/10/09 20:30:18;;;;;;;12.47;8.80;;;;;;;;;;6299752;22;20423;-56
2021/10/09 20:32:50;;;;;;;17.43;9.40;;;;;;;;;;6274627;22;20446;-58
2021/10/09 20:35:25;;;;;;;10.93;7.60;;;;;;;;;;6301645;22;20388;-60
2021/10/09 20:38:24;;;;;;;13.13;8.93;;;;;;;;;;6301862;22;20415;-60
2021/10/09 20:40:59;;;;;;;15.20;9.70;;;;;;;;;;6300782;22;20447;-56
2021/10/09 20:43:33;;;;;;;10.53;7.80;;;;;;;;;;6300715;22;20444;-62
2021/10/09 20:46:05;;;;;;;15.80;7.43;;;;;;;;;;6301662;22;20404;-57
2021/10/09 20:48:51;;;;;;;12.03;8.60;;;;;;;;;;6301793;22;20404;-58
2021/10/09 20:51:50;;;;;;;13.50;7.90;;;;;;;;;;6301617;22;20407;-54
2021/10/09 20:54:29;;;;;;;13.50;7.10;;;;;;;;;;6300899;22;20419;-53
2021/10/09 20:57:27;;;;;;;13.80;7.73;;;;;;;;;;6301409;22;20427;-57
2021/10/09 21:03:03;;;;;;;12.20;7.77;;;;;;;;;;6301453;22;20454;-59
2021/10/09 21:08:36;;;;;;;43.90;22.63;;;;;;;;;;6266871;22;20410;-54
2021/10/09 21:11:42;;;;;;;77.13;43.63;;;;;;;;;;6301523;22;20388;-61
2021/10/09 21:23:20;;;;;;;49.90;30.03;;;;;;;;;;6302011;22;20419;-59
2021/10/09 21:25:54;;;;;;;109.83;52.43;;;;;;;;;;6301463;22;20864;-59
2021/10/09 21:28:34;;;;;;;126.87;65.90;;;;;;;;;;6302171;22;20458;-62
2021/10/09 21:37:00;;;;;;;16.60;11.90;;;;;;;;;;6299530;22;20430;-60
2021/10/09 21:39:27;;;;;;;19.13;12.93;;;;;;;;;;6301764;22;20392;-55
2021/10/09 21:41:55;;;;;;;24.47;14.83;;;;;;;;;;6301763;22;20416;-58
2021/10/09 21:44:27;;;;;;;34.57;23.03;;;;;;;;;;6301245;22;20465;-56
2021/10/09 21:50:26;;;;;;;31.87;21.50;;;;;;;;;;5154155;27;20563;-57
2021/10/09 21:52:54;;;;;;;16.03;10.93;;;;;;;;;;5154437;28;20446;-52
2021/10/09 21:55:34;;;;;;;30.97;15.80;;;;;;;;;;5154560;28;20486;-57
2021/10/09 21:58:08;;;;;;;59.70;30.03;;;;;;;;;;5155234;28;20472;-57
2021/10/09 22:01:23;;;;;;;25.23;16.67;;;;;;;;;;5154836;28;20452;-58
2021/10/09 22:18:15;;;;;;;53.10;34.37;;;;;;;;;;5129445;28;20496;-57
2021/10/09 22:32:30;;;;;;;24.80;12.83;;;;;;;;;;5087438;28;20415;-54
2021/10/09 22:34:58;;;;;;;18.47;11.90;;;;;;;;;;5087944;28;20452;-51
2021/10/09 22:37:32;;;;;;;16.20;10.63;;;;;;;;;;5087739;28;20428;-62
2021/10/09 22:40:01;;;;;;;15.63;10.27;;;;;;;;;;5087772;28;20456;-53
2021/10/09 22:42:28;;;;;;;13.43;10.17;;;;;;;;;;5087836;28;20464;-56
2021/10/09 22:45:05;;;;;;;24.20;15.07;;;;;;;;;;5087622;28;20455;-53
2021/10/09 22:47:32;;;;;;;14.80;10.73;;;;;;;;;;5069706;28;20483;-57
2021/10/09 22:50:08;;;;;;;16.43;11.33;;;;;;;;;;5067718;28;20497;-55
2021/10/09 22:52:39;;;;;;;15.93;9.60;;;;;;;;;;5066825;27;20482;-55
2021/10/09 22:55:11;;;;;;;19.83;13.13;;;;;;;;;;5067839;28;20441;-61
2021/10/09 22:57:48;;;;;;;13.80;9.53;;;;;;;;;;5067034;27;20449;-55
2021/10/09 23:00:15;;;;;;;13.20;9.23;;;;;;;;;;5056766;28;20461;-56
2021/10/09 23:02:47;;;;;;;12.80;9.37;;;;;;;;;;5054758;28;20457;-59
2021/10/09 23:05:21;;;;;;;18.10;10.40;;;;;;;;;;5054201;28;20449;-59
2021/10/09 23:07:50;;;;;;;15.77;10.93;;;;;;;;;;5053842;28;20454;-53
2021/10/09 23:10:19;;;;;;;17.60;10.93;;;;;;;;;;5054076;28;20529;-54
2021/10/09 23:12:56;;;;;;;27.87;20.80;;;;;;;;;;5054049;28;20446;-60
2021/10/09 23:15:24;;;;;;;21.37;15.20;;;;;;;;;;5053584;28;20462;-56
2021/10/09 23:17:52;;;;;;;28.00;16.67;;;;;;;;;;5054385;28;20458;-59
2021/10/09 23:23:23;;;;;;;24.50;12.57;;;;;;;;;;5129127;27;20499;-53
2021/10/09 23:26:11;;;;;;;32.30;21.50;;;;;;;;;;5158932;27;20585;-61
2021/10/09 23:28:40;;;;;;;28.10;19.17;;;;;;;;;;5158621;27;20469;-54
2021/10/09 23:31:18;;;;;;;21.53;15.03;;;;;;;;;;5159431;27;20533;-62
2021/10/09 23:36:38;;;;;;;29.77;16.83;;;;;;;;;;5148018;27;20445;-58
2021/10/09 23:39:06;;;;;;;23.60;15.67;;;;;;;;;;5158733;27;20445;-56
2021/10/09 23:41:54;;;;;;;23.00;15.03;;;;;;;;;;5158756;27;20441;-58
2021/10/09 23:44:33;;;;;;;37.00;26.60;;;;;;;;;;5158102;27;20524;-57
2021/10/09 23:47:00;;;;;;;21.10;14.40;;;;;;;;;;5158239;27;20479;-55
2021/10/09 23:49:53;;;;;;;17.10;11.90;;;;;;;;;;5157977;27;20465;-55
2021/10/09 23:52:21;;;;;;;18.73;13.07;;;;;;;;;;5158482;27;20476;-57
2021/10/09 23:54:48;;;;;;;18.00;11.17;;;;;;;;;;5158436;27;20461;-55
2021/10/09 23:57:15;;;;;;;36.07;23.73;;;;;;;;;;5158225;27;20450;-56
2021/10/09 23:59:44;;;;;;;20.37;13.83;;;;;;;;;;5157947;27;20441;-59
